sensor_id;sensor_type;location;lat;lon;timestamp;P1;durP1;ratioP1;P2;durP2;ratioP2
4375;SDS011;2202;50.866;12.750;2024-02-21T00:01:32;9.67;;;5.90;;
4375;SDS011;2202;50.866;12.750;2024-02-21T00:03:59;11.90;;;6.03;;
4375;SDS011;2202;50.866;12.750;2024-02-21T00:06:26;11.10;;;6.10;;
4375;SDS011;2202;50.866;12.750;2024-02-21T00:08:53;16.70;;;6.80;;
4375;SDS011;2202;50.866;12.750;2024-02-21T00:11:21;9.90;;;5.50;;
4375;SDS011;2202;50.866;12.750;2024-02-21T00:13:48;15.57;;;6.40;;
4375;SDS011;2202;50.866;12.750;2024-02-21T00:16:15;12.60;;;6.17;;
4375;SDS011;2202;50.866;12.750;2024-02-21T00:18:42;13.10;;;5.00;;
4375;SDS011;2202;50.866;12.750;2024-02-21T00:21:09;10.03;;;5.47;;
4375;SDS011;2202;50.866;12.750;2024-02-21T00:23:40;14.07;;;5.80;;
4375;SDS011;2202;50.866;12.750;2024-02-21T00:26:07;11.67;;;5.37;;
4375;SDS011;2202;50.866;12.750;2024-02-21T00:28:35;10.07;;;5.60;;
4375;SDS011;2202;50.866;12.750;2024-02-21T00:31:02;16.20;;;5.97;;
4375;SDS011;2202;50.866;12.750;2024-02-21T00:33:29;15.03;;;6.63;;
4375;SDS011;2202;50.866;12.750;2024-02-21T00:35:55;16.70;;;5.90;;
4375;SDS011;2202;50.866;12.750;2024-02-21T00:38:22;10.93;;;6.20;;
4375;SDS011;2202;50.866;12.750;2024-02-21T00:40:49;11.00;;;8.50;;
4375;SDS011;2202;50.866;12.750;2024-02-21T00:43:16;14.30;;;6.00;;
4375;SDS011;2202;50.866;12.750;2024-02-21T00:45:44;16.80;;;6.03;;
4375;SDS011;2202;50.866;12.750;2024-02-21T00:48:11;11.43;;;5.63;;
4375;SDS011;2202;50.866;12.750;2024-02-21T00:50:38;9.57;;;6.43;;
4375;SDS011;2202;50.866;12.750;2024-02-21T00:53:05;11.33;;;5.90;;
4375;SDS011;2202;50.866;12.750;2024-02-21T00:55:31;18.77;;;6.57;;
4375;SDS011;2202;50.866;12.750;2024-02-21T00:57:58;12.00;;;6.07;;
4375;SDS011;2202;50.866;12.750;2024-02-21T01:00:25;9.17;;;5.60;;
4375;SDS011;2202;50.866;12.750;2024-02-21T01:02:53;10.53;;;5.73;;
4375;SDS011;2202;50.866;12.750;2024-02-21T01:05:20;15.83;;;6.10;;
4375;SDS011;2202;50.866;12.750;2024-02-21T01:07:47;14.40;;;7.10;;
4375;SDS011;2202;50.866;12.750;2024-02-21T01:10:14;8.13;;;5.57;;
4375;SDS011;2202;50.866;12.750;2024-02-21T01:12:42;18.60;;;6.90;;
4375;SDS011;2202;50.866;12.750;2024-02-21T01:15:08;14.67;;;6.13;;
4375;SDS011;2202;50.866;12.750;2024-02-21T01:17:36;23.60;;;6.43;;
4375;SDS011;2202;50.866;12.750;2024-02-21T01:20:07;11.70;;;6.80;;
4375;SDS011;2202;50.866;12.750;2024-02-21T01:22:34;10.17;;;6.83;;
4375;SDS011;2202;50.866;12.750;2024-02-21T01:25:01;15.00;;;7.23;;
4375;SDS011;2202;50.866;12.750;2024-02-21T01:27:28;9.97;;;6.70;;
4375;SDS011;2202;50.866;12.750;2024-02-21T01:29:55;11.23;;;6.20;;
4375;SDS011;2202;50.866;12.750;2024-02-21T01:32:22;17.33;;;8.10;;
4375;SDS011;2202;50.866;12.750;2024-02-21T01:34:49;11.50;;;7.40;;
4375;SDS011;2202;50.866;12.750;2024-02-21T01:37:17;11.70;;;6.63;;
4375;SDS011;2202;50.866;12.750;2024-02-21T01:39:44;18.57;;;7.43;;
4375;SDS011;2202;50.866;12.750;2024-02-21T01:42:11;11.17;;;7.60;;
4375;SDS011;2202;50.866;12.750;2024-02-21T01:44:38;18.23;;;7.30;;
4375;SDS011;2202;50.866;12.750;2024-02-21T01:47:04;12.60;;;6.97;;
4375;SDS011;2202;50.866;12.750;2024-02-21T01:49:32;15.00;;;7.60;;
4375;SDS011;2202;50.866;12.750;2024-02-21T01:51:59;18.77;;;8.80;;
4375;SDS011;2202;50.866;12.750;2024-02-21T01:54:27;17.47;;;7.33;;
4375;SDS011;2202;50.866;12.750;2024-02-21T01:56:54;15.93;;;7.40;;
4375;SDS011;2202;50.866;12.750;2024-02-21T01:59:22;19.23;;;7.33;;
4375;SDS011;2202;50.866;12.750;2024-02-21T02:01:49;13.90;;;8.03;;
4375;SDS011;2202;50.866;12.750;2024-02-21T02:04:17;15.57;;;8.53;;
4375;SDS011;2202;50.866;12.750;2024-02-21T02:06:45;13.23;;;8.00;;
4375;SDS011;2202;50.866;12.750;2024-02-21T02:09:12;11.97;;;8.20;;
4375;SDS011;2202;50.866;12.750;2024-02-21T02:11:40;17.40;;;10.50;;
4375;SDS011;2202;50.866;12.750;2024-02-21T02:14:08;17.03;;;7.80;;
4375;SDS011;2202;50.866;12.750;2024-02-21T02:16:35;27.43;;;9.40;;
4375;SDS011;2202;50.866;12.750;2024-02-21T02:19:02;16.70;;;8.40;;
4375;SDS011;2202;50.866;12.750;2024-02-21T02:21:29;18.07;;;8.20;;
4375;SDS011;2202;50.866;12.750;2024-02-21T02:24:01;13.70;;;7.57;;
4375;SDS011;2202;50.866;12.750;2024-02-21T02:26:29;16.03;;;9.07;;
4375;SDS011;2202;50.866;12.750;2024-02-21T02:28:56;14.23;;;8.17;;
4375;SDS011;2202;50.866;12.750;2024-02-21T02:31:23;12.13;;;8.10;;
4375;SDS011;2202;50.866;12.750;2024-02-21T02:33:50;11.00;;;7.77;;
4375;SDS011;2202;50.866;12.750;2024-02-21T02:36:17;14.73;;;9.03;;
4375;SDS011;2202;50.866;12.750;2024-02-21T02:38:43;17.17;;;8.60;;
4375;SDS011;2202;50.866;12.750;2024-02-21T02:41:12;15.73;;;7.77;;
4375;SDS011;2202;50.866;12.750;2024-02-21T02:43:38;21.57;;;8.27;;
4375;SDS011;2202;50.866;12.750;2024-02-21T02:46:05;14.73;;;7.23;;
4375;SDS011;2202;50.866;12.750;2024-02-21T02:48:32;12.90;;;8.77;;
4375;SDS011;2202;50.866;12.750;2024-02-21T02:50:59;14.83;;;8.10;;
4375;SDS011;2202;50.866;12.750;2024-02-21T02:53:26;13.80;;;8.23;;
4375;SDS011;2202;50.866;12.750;2024-02-21T02:55:52;19.97;;;9.93;;
4375;SDS011;2202;50.866;12.750;2024-02-21T02:58:21;15.40;;;8.50;;
4375;SDS011;2202;50.866;12.750;2024-02-21T03:00:48;18.63;;;9.50;;
4375;SDS011;2202;50.866;12.750;2024-02-21T03:03:14;15.90;;;8.07;;
4375;SDS011;2202;50.866;12.750;2024-02-21T03:05:41;26.07;;;9.00;;
4375;SDS011;2202;50.866;12.750;2024-02-21T03:08:08;16.70;;;7.80;;
4375;SDS011;2202;50.866;12.750;2024-02-21T03:10:35;17.10;;;7.40;;
4375;SDS011;2202;50.866;12.750;2024-02-21T03:13:02;16.87;;;8.13;;
4375;SDS011;2202;50.866;12.750;2024-02-21T03:15:31;17.43;;;9.23;;
4375;SDS011;2202;50.866;12.750;2024-02-21T03:17:58;12.80;;;8.20;;
4375;SDS011;2202;50.866;12.750;2024-02-21T03:20:25;15.30;;;8.83;;
4375;SDS011;2202;50.866;12.750;2024-02-21T03:22:52;19.57;;;8.77;;
4375;SDS011;2202;50.866;12.750;2024-02-21T03:25:18;14.00;;;8.20;;
4375;SDS011;2202;50.866;12.750;2024-02-21T03:27:45;19.07;;;7.23;;
4375;SDS011;2202;50.866;12.750;2024-02-21T03:30:12;12.43;;;7.43;;
4375;SDS011;2202;50.866;12.750;2024-02-21T03:32:41;19.07;;;9.17;;
4375;SDS011;2202;50.866;12.750;2024-02-21T03:35:07;10.70;;;8.73;;
4375;SDS011;2202;50.866;12.750;2024-02-21T03:37:34;15.83;;;8.90;;
4375;SDS011;2202;50.866;12.750;2024-02-21T03:40:01;14.33;;;9.13;;
4375;SDS011;2202;50.866;12.750;2024-02-21T03:42:28;12.03;;;8.93;;
4375;SDS011;2202;50.866;12.750;2024-02-21T03:44:56;13.10;;;8.77;;
4375;SDS011;2202;50.866;12.750;2024-02-21T03:47:23;12.30;;;7.67;;
4375;SDS011;2202;50.866;12.750;2024-02-21T03:49:51;14.50;;;8.50;;
4375;SDS011;2202;50.866;12.750;2024-02-21T03:52:18;17.70;;;7.97;;
4375;SDS011;2202;50.866;12.750;2024-02-21T03:54:45;10.80;;;7.77;;
4375;SDS011;2202;50.866;12.750;2024-02-21T03:57:12;27.67;;;8.80;;
4375;SDS011;2202;50.866;12.750;2024-02-21T03:59:38;16.57;;;8.37;;
4375;SDS011;2202;50.866;12.750;2024-02-21T04:02:06;15.27;;;8.97;;
4375;SDS011;2202;50.866;12.750;2024-02-21T04:04:33;16.73;;;8.47;;
4375;SDS011;2202;50.866;12.750;2024-02-21T04:07:03;15.93;;;8.47;;
4375;SDS011;2202;50.866;12.750;2024-02-21T04:09:31;19.67;;;8.20;;
4375;SDS011;2202;50.866;12.750;2024-02-21T04:11:58;22.30;;;9.57;;
4375;SDS011;2202;50.866;12.750;2024-02-21T04:14:25;15.60;;;7.17;;
4375;SDS011;2202;50.866;12.750;2024-02-21T04:16:52;15.33;;;9.30;;
4375;SDS011;2202;50.866;12.750;2024-02-21T04:19:19;17.60;;;9.00;;
4375;SDS011;2202;50.866;12.750;2024-02-21T04:21:46;17.63;;;8.53;;
4375;SDS011;2202;50.866;12.750;2024-02-21T04:24:14;25.47;;;9.83;;
4375;SDS011;2202;50.866;12.750;2024-02-21T04:26:41;16.43;;;9.40;;
4375;SDS011;2202;50.866;12.750;2024-02-21T04:29:08;9.70;;;8.37;;
4375;SDS011;2202;50.866;12.750;2024-02-21T04:31:35;21.63;;;10.07;;
4375;SDS011;2202;50.866;12.750;2024-02-21T04:34:02;14.13;;;8.63;;
4375;SDS011;2202;50.866;12.750;2024-02-21T04:36:29;24.23;;;9.97;;
4375;SDS011;2202;50.866;12.750;2024-02-21T04:38:56;20.97;;;10.30;;
4375;SDS011;2202;50.866;12.750;2024-02-21T04:41:24;11.83;;;8.60;;
4375;SDS011;2202;50.866;12.750;2024-02-21T04:43:53;13.60;;;9.97;;
4375;SDS011;2202;50.866;12.750;2024-02-21T04:46:20;16.20;;;9.33;;
4375;SDS011;2202;50.866;12.750;2024-02-21T04:48:47;21.50;;;11.57;;
4375;SDS011;2202;50.866;12.750;2024-02-21T04:51:13;17.13;;;10.30;;
4375;SDS011;2202;50.866;12.750;2024-02-21T04:53:40;19.73;;;9.40;;
4375;SDS011;2202;50.866;12.750;2024-02-21T04:56:07;26.40;;;10.70;;
4375;SDS011;2202;50.866;12.750;2024-02-21T04:58:38;20.90;;;11.80;;
4375;SDS011;2202;50.866;12.750;2024-02-21T05:01:06;21.10;;;11.33;;
4375;SDS011;2202;50.866;12.750;2024-02-21T05:03:33;18.00;;;10.20;;
4375;SDS011;2202;50.866;12.750;2024-02-21T05:05:59;16.07;;;9.53;;
4375;SDS011;2202;50.866;12.750;2024-02-21T05:08:26;13.37;;;9.90;;
4375;SDS011;2202;50.866;12.750;2024-02-21T05:10:53;23.27;;;9.73;;
4375;SDS011;2202;50.866;12.750;2024-02-21T05:13:20;17.77;;;10.07;;
4375;SDS011;2202;50.866;12.750;2024-02-21T05:15:57;14.50;;;10.43;;
4375;SDS011;2202;50.866;12.750;2024-02-21T05:19:07;14.67;;;10.23;;
4375;SDS011;2202;50.866;12.750;2024-02-21T05:21:21;15.93;;;12.10;;
4375;SDS011;2202;50.866;12.750;2024-02-21T05:23:49;24.80;;;8.67;;
4375;SDS011;2202;50.866;12.750;2024-02-21T05:26:19;17.30;;;8.90;;
4375;SDS011;2202;50.866;12.750;2024-02-21T05:28:47;17.50;;;8.97;;
4375;SDS011;2202;50.866;12.750;2024-02-21T05:31:16;19.10;;;8.90;;
4375;SDS011;2202;50.866;12.750;2024-02-21T05:33:43;19.83;;;11.20;;
4375;SDS011;2202;50.866;12.750;2024-02-21T05:36:10;17.60;;;9.37;;
4375;SDS011;2202;50.866;12.750;2024-02-21T05:38:37;19.60;;;9.43;;
4375;SDS011;2202;50.866;12.750;2024-02-21T05:41:04;23.43;;;10.40;;
4375;SDS011;2202;50.866;12.750;2024-02-21T05:43:31;17.87;;;9.97;;
4375;SDS011;2202;50.866;12.750;2024-02-21T05:45:58;16.83;;;9.53;;
4375;SDS011;2202;50.866;12.750;2024-02-21T05:48:26;20.23;;;9.97;;
4375;SDS011;2202;50.866;12.750;2024-02-21T05:50:53;21.80;;;9.50;;
4375;SDS011;2202;50.866;12.750;2024-02-21T05:53:20;22.13;;;10.50;;
4375;SDS011;2202;50.866;12.750;2024-02-21T05:55:47;22.17;;;11.43;;
4375;SDS011;2202;50.866;12.750;2024-02-21T05:58:13;18.33;;;10.20;;
4375;SDS011;2202;50.866;12.750;2024-02-21T06:00:40;16.27;;;9.40;;
4375;SDS011;2202;50.866;12.750;2024-02-21T06:03:07;24.53;;;10.50;;
4375;SDS011;2202;50.866;12.750;2024-02-21T06:05:37;15.40;;;11.37;;
4375;SDS011;2202;50.866;12.750;2024-02-21T06:08:05;19.77;;;10.67;;
4375;SDS011;2202;50.866;12.750;2024-02-21T06:10:33;19.53;;;10.83;;
4375;SDS011;2202;50.866;12.750;2024-02-21T06:12:59;17.60;;;11.53;;
4375;SDS011;2202;50.866;12.750;2024-02-21T06:15:26;20.43;;;11.87;;
4375;SDS011;2202;50.866;12.750;2024-02-21T06:17:53;21.60;;;10.60;;
4375;SDS011;2202;50.866;12.750;2024-02-21T06:20:20;15.20;;;10.00;;
4375;SDS011;2202;50.866;12.750;2024-02-21T06:22:48;22.47;;;11.80;;
4375;SDS011;2202;50.866;12.750;2024-02-21T06:25:15;17.40;;;9.43;;
4375;SDS011;2202;50.866;12.750;2024-02-21T06:27:42;21.77;;;10.47;;
4375;SDS011;2202;50.866;12.750;2024-02-21T06:30:10;21.50;;;9.83;;
4375;SDS011;2202;50.866;12.750;2024-02-21T06:32:37;15.90;;;9.60;;
4375;SDS011;2202;50.866;12.750;2024-02-21T06:35:05;20.03;;;11.23;;
4375;SDS011;2202;50.866;12.750;2024-02-21T06:37:32;13.87;;;9.90;;
4375;SDS011;2202;50.866;12.750;2024-02-21T06:40:00;21.27;;;10.37;;
4375;SDS011;2202;50.866;12.750;2024-02-21T06:42:29;19.00;;;13.13;;
4375;SDS011;2202;50.866;12.750;2024-02-21T06:44:55;23.37;;;12.20;;
4375;SDS011;2202;50.866;12.750;2024-02-21T06:47:22;24.33;;;12.00;;
4375;SDS011;2202;50.866;12.750;2024-02-21T06:49:49;21.70;;;8.80;;
4375;SDS011;2202;50.866;12.750;2024-02-21T06:52:17;20.70;;;9.87;;
4375;SDS011;2202;50.866;12.750;2024-02-21T06:54:45;14.43;;;10.33;;
4375;SDS011;2202;50.866;12.750;2024-02-21T06:57:13;20.00;;;10.93;;
4375;SDS011;2202;50.866;12.750;2024-02-21T06:59:40;23.50;;;10.97;;
4375;SDS011;2202;50.866;12.750;2024-02-21T07:02:07;16.53;;;9.50;;
4375;SDS011;2202;50.866;12.750;2024-02-21T07:04:34;14.30;;;8.77;;
4375;SDS011;2202;50.866;12.750;2024-02-21T07:07:01;14.37;;;10.20;;
4375;SDS011;2202;50.866;12.750;2024-02-21T07:09:28;16.10;;;11.20;;
4375;SDS011;2202;50.866;12.750;2024-02-21T07:11:57;21.40;;;9.77;;
4375;SDS011;2202;50.866;12.750;2024-02-21T07:14:25;27.63;;;10.60;;
4375;SDS011;2202;50.866;12.750;2024-02-21T07:16:52;23.97;;;10.70;;
4375;SDS011;2202;50.866;12.750;2024-02-21T07:19:19;17.50;;;11.00;;
4375;SDS011;2202;50.866;12.750;2024-02-21T07:21:46;20.67;;;10.83;;
4375;SDS011;2202;50.866;12.750;2024-02-21T07:24:13;21.40;;;10.60;;
4375;SDS011;2202;50.866;12.750;2024-02-21T07:26:41;15.73;;;10.70;;
4375;SDS011;2202;50.866;12.750;2024-02-21T07:29:09;14.57;;;10.90;;
4375;SDS011;2202;50.866;12.750;2024-02-21T07:31:41;22.40;;;11.20;;
4375;SDS011;2202;50.866;12.750;2024-02-21T07:34:08;20.33;;;10.80;;
4375;SDS011;2202;50.866;12.750;2024-02-21T07:36:35;20.80;;;10.63;;
4375;SDS011;2202;50.866;12.750;2024-02-21T07:39:02;19.10;;;12.07;;
4375;SDS011;2202;50.866;12.750;2024-02-21T07:41:29;18.63;;;10.97;;
4375;SDS011;2202;50.866;12.750;2024-02-21T07:43:56;19.37;;;8.47;;
4375;SDS011;2202;50.866;12.750;2024-02-21T07:46:23;12.27;;;9.73;;
4375;SDS011;2202;50.866;12.750;2024-02-21T07:48:51;17.33;;;9.50;;
4375;SDS011;2202;50.866;12.750;2024-02-21T07:51:18;15.67;;;10.57;;
4375;SDS011;2202;50.866;12.750;2024-02-21T07:53:45;20.53;;;11.70;;
4375;SDS011;2202;50.866;12.750;2024-02-21T07:56:12;16.83;;;10.03;;
4375;SDS011;2202;50.866;12.750;2024-02-21T07:58:40;14.00;;;8.97;;
4375;SDS011;2202;50.866;12.750;2024-02-21T08:01:07;18.40;;;9.97;;
4375;SDS011;2202;50.866;12.750;2024-02-21T08:03:34;21.23;;;10.80;;
4375;SDS011;2202;50.866;12.750;2024-02-21T08:06:02;12.13;;;9.60;;
4375;SDS011;2202;50.866;12.750;2024-02-21T08:08:30;16.33;;;9.97;;
4375;SDS011;2202;50.866;12.750;2024-02-21T08:10:56;20.43;;;8.53;;
4375;SDS011;2202;50.866;12.750;2024-02-21T08:13:23;23.37;;;8.87;;
4375;SDS011;2202;50.866;12.750;2024-02-21T08:15:50;14.10;;;9.80;;
4375;SDS011;2202;50.866;12.750;2024-02-21T08:18:17;13.20;;;9.30;;
4375;SDS011;2202;50.866;12.750;2024-02-21T08:20:44;13.97;;;9.70;;
4375;SDS011;2202;50.866;12.750;2024-02-21T08:23:12;13.10;;;8.80;;
4375;SDS011;2202;50.866;12.750;2024-02-21T08:25:41;11.60;;;8.20;;
4375;SDS011;2202;50.866;12.750;2024-02-21T08:28:08;11.30;;;8.60;;
4375;SDS011;2202;50.866;12.750;2024-02-21T08:30:35;14.80;;;7.20;;
4375;SDS011;2202;50.866;12.750;2024-02-21T08:33:02;14.53;;;8.47;;
4375;SDS011;2202;50.866;12.750;2024-02-21T08:35:29;16.40;;;8.40;;
4375;SDS011;2202;50.866;12.750;2024-02-21T08:37:56;17.50;;;8.90;;
4375;SDS011;2202;50.866;12.750;2024-02-21T08:40:24;12.73;;;8.73;;
4375;SDS011;2202;50.866;12.750;2024-02-21T08:42:51;10.63;;;7.90;;
4375;SDS011;2202;50.866;12.750;2024-02-21T08:45:19;13.60;;;7.63;;
4375;SDS011;2202;50.866;12.750;2024-02-21T08:47:45;11.60;;;8.30;;
4375;SDS011;2202;50.866;12.750;2024-02-21T08:50:12;11.43;;;8.53;;
4375;SDS011;2202;50.866;12.750;2024-02-21T08:52:39;13.53;;;8.27;;
4375;SDS011;2202;50.866;12.750;2024-02-21T08:55:06;14.53;;;8.17;;
4375;SDS011;2202;50.866;12.750;2024-02-21T08:57:35;10.50;;;7.77;;
4375;SDS011;2202;50.866;12.750;2024-02-21T09:00:03;11.73;;;8.60;;
4375;SDS011;2202;50.866;12.750;2024-02-21T09:02:34;12.00;;;7.90;;
4375;SDS011;2202;50.866;12.750;2024-02-21T09:05:03;11.70;;;8.20;;
4375;SDS011;2202;50.866;12.750;2024-02-21T09:07:31;14.67;;;7.30;;
4375;SDS011;2202;50.866;12.750;2024-02-21T09:09:58;10.93;;;8.30;;
4375;SDS011;2202;50.866;12.750;2024-02-21T09:12:24;15.17;;;8.03;;
4375;SDS011;2202;50.866;12.750;2024-02-21T09:14:53;7.97;;;6.70;;
4375;SDS011;2202;50.866;12.750;2024-02-21T09:17:19;14.23;;;8.00;;
4375;SDS011;2202;50.866;12.750;2024-02-21T09:19:46;13.57;;;9.10;;
4375;SDS011;2202;50.866;12.750;2024-02-21T09:22:13;11.90;;;8.00;;
4375;SDS011;2202;50.866;12.750;2024-02-21T09:24:40;15.03;;;8.43;;
4375;SDS011;2202;50.866;12.750;2024-02-21T09:27:07;8.73;;;7.40;;
4375;SDS011;2202;50.866;12.750;2024-02-21T09:29:34;14.53;;;8.70;;
4375;SDS011;2202;50.866;12.750;2024-02-21T09:32:02;17.10;;;9.00;;
4375;SDS011;2202;50.866;12.750;2024-02-21T09:34:30;11.33;;;7.60;;
4375;SDS011;2202;50.866;12.750;2024-02-21T09:36:56;19.13;;;7.80;;
4375;SDS011;2202;50.866;12.750;2024-02-21T09:39:23;18.30;;;8.20;;
4375;SDS011;2202;50.866;12.750;2024-02-21T09:41:50;12.23;;;8.57;;
4375;SDS011;2202;50.866;12.750;2024-02-21T09:44:23;13.23;;;7.50;;
4375;SDS011;2202;50.866;12.750;2024-02-21T09:46:57;15.70;;;8.13;;
4375;SDS011;2202;50.866;12.750;2024-02-21T09:49:30;11.70;;;7.60;;
4375;SDS011;2202;50.866;12.750;2024-02-21T09:51:59;11.37;;;7.17;;
4375;SDS011;2202;50.866;12.750;2024-02-21T09:54:29;15.77;;;7.20;;
4375;SDS011;2202;50.866;12.750;2024-02-21T09:56:56;14.37;;;6.57;;
4375;SDS011;2202;50.866;12.750;2024-02-21T09:59:23;15.87;;;7.50;;
4375;SDS011;2202;50.866;12.750;2024-02-21T10:01:51;16.63;;;6.77;;
4375;SDS011;2202;50.866;12.750;2024-02-21T10:04:20;7.43;;;5.90;;
4375;SDS011;2202;50.866;12.750;2024-02-21T10:06:47;10.90;;;6.30;;
4375;SDS011;2202;50.866;12.750;2024-02-21T10:09:20;11.00;;;6.57;;
4375;SDS011;2202;50.866;12.750;2024-02-21T10:11:48;12.83;;;6.90;;
4375;SDS011;2202;50.866;12.750;2024-02-21T10:14:16;11.60;;;6.83;;
4375;SDS011;2202;50.866;12.750;2024-02-21T10:16:43;8.87;;;6.73;;
4375;SDS011;2202;50.866;12.750;2024-02-21T10:19:17;10.87;;;6.90;;
4375;SDS011;2202;50.866;12.750;2024-02-21T10:21:58;16.67;;;6.97;;
4375;SDS011;2202;50.866;12.750;2024-02-21T10:24:29;10.50;;;6.00;;
4375;SDS011;2202;50.866;12.750;2024-02-21T10:27:01;10.50;;;5.97;;
4375;SDS011;2202;50.866;12.750;2024-02-21T10:29:29;14.70;;;6.37;;
4375;SDS011;2202;50.866;12.750;2024-02-21T10:32:08;8.43;;;6.20;;
4375;SDS011;2202;50.866;12.750;2024-02-21T10:34:37;10.60;;;6.57;;
4375;SDS011;2202;50.866;12.750;2024-02-21T10:37:06;9.93;;;5.43;;
4375;SDS011;2202;50.866;12.750;2024-02-21T10:39:35;10.03;;;6.40;;
4375;SDS011;2202;50.866;12.750;2024-02-21T10:42:04;10.73;;;7.93;;
4375;SDS011;2202;50.866;12.750;2024-02-21T10:44:32;11.40;;;6.10;;
4375;SDS011;2202;50.866;12.750;2024-02-21T10:46:59;7.20;;;5.97;;
4375;SDS011;2202;50.866;12.750;2024-02-21T10:49:31;6.20;;;5.60;;
4375;SDS011;2202;50.866;12.750;2024-02-21T10:52:01;9.27;;;6.80;;
4375;SDS011;2202;50.866;12.750;2024-02-21T10:54:44;7.10;;;5.33;;
4375;SDS011;2202;50.866;12.750;2024-02-21T10:57:15;6.93;;;4.87;;
4375;SDS011;2202;50.866;12.750;2024-02-21T10:59:44;7.23;;;4.97;;
4375;SDS011;2202;50.866;12.750;2024-02-21T11:02:11;9.03;;;6.63;;
4375;SDS011;2202;50.866;12.750;2024-02-21T11:04:38;12.40;;;5.43;;
4375;SDS011;2202;50.866;12.750;2024-02-21T11:07:06;7.80;;;6.40;;
4375;SDS011;2202;50.866;12.750;2024-02-21T11:09:34;10.90;;;5.40;;
4375;SDS011;2202;50.866;12.750;2024-02-21T11:12:03;7.93;;;5.73;;
4375;SDS011;2202;50.866;12.750;2024-02-21T11:14:31;6.70;;;5.70;;
4375;SDS011;2202;50.866;12.750;2024-02-21T11:17:01;11.27;;;5.50;;
4375;SDS011;2202;50.866;12.750;2024-02-21T11:19:29;10.10;;;5.40;;
4375;SDS011;2202;50.866;12.750;2024-02-21T11:21:56;17.80;;;5.53;;
4375;SDS011;2202;50.866;12.750;2024-02-21T11:24:26;11.20;;;4.70;;
4375;SDS011;2202;50.866;12.750;2024-02-21T11:26:54;12.00;;;5.20;;
4375;SDS011;2202;50.866;12.750;2024-02-21T11:29:26;7.30;;;4.70;;
4375;SDS011;2202;50.866;12.750;2024-02-21T11:31:55;6.23;;;5.03;;
4375;SDS011;2202;50.866;12.750;2024-02-21T11:34:22;5.77;;;4.50;;
4375;SDS011;2202;50.866;12.750;2024-02-21T11:36:49;11.73;;;6.53;;
4375;SDS011;2202;50.866;12.750;2024-02-21T11:39:20;7.00;;;5.47;;
4375;SDS011;2202;50.866;12.750;2024-02-21T11:41:48;7.67;;;4.40;;
4375;SDS011;2202;50.866;12.750;2024-02-21T11:44:30;7.27;;;5.37;;
4375;SDS011;2202;50.866;12.750;2024-02-21T11:46:58;10.83;;;5.30;;
4375;SDS011;2202;50.866;12.750;2024-02-21T11:49:25;6.93;;;5.30;;
4375;SDS011;2202;50.866;12.750;2024-02-21T11:51:57;7.83;;;4.90;;
4375;SDS011;2202;50.866;12.750;2024-02-21T11:54:28;9.03;;;5.53;;
4375;SDS011;2202;50.866;12.750;2024-02-21T11:56:55;7.93;;;4.67;;
4375;SDS011;2202;50.866;12.750;2024-02-21T11:59:22;6.93;;;4.70;;
4375;SDS011;2202;50.866;12.750;2024-02-21T12:01:50;6.03;;;4.63;;
4375;SDS011;2202;50.866;12.750;2024-02-21T12:04:18;6.63;;;4.93;;
4375;SDS011;2202;50.866;12.750;2024-02-21T12:06:46;5.77;;;4.30;;
4375;SDS011;2202;50.866;12.750;2024-02-21T12:09:13;7.43;;;4.47;;
4375;SDS011;2202;50.866;12.750;2024-02-21T12:11:41;9.23;;;4.80;;
4375;SDS011;2202;50.866;12.750;2024-02-21T12:14:07;8.90;;;4.70;;
4375;SDS011;2202;50.866;12.750;2024-02-21T12:16:34;8.47;;;5.13;;
4375;SDS011;2202;50.866;12.750;2024-02-21T12:19:03;6.57;;;4.00;;
4375;SDS011;2202;50.866;12.750;2024-02-21T12:21:30;5.10;;;4.40;;
4375;SDS011;2202;50.866;12.750;2024-02-21T12:23:59;10.57;;;4.87;;
4375;SDS011;2202;50.866;12.750;2024-02-21T12:26:29;9.43;;;6.00;;
4375;SDS011;2202;50.866;12.750;2024-02-21T12:28:56;6.23;;;4.70;;
4375;SDS011;2202;50.866;12.750;2024-02-21T12:31:23;8.60;;;5.00;;
4375;SDS011;2202;50.866;12.750;2024-02-21T12:33:50;9.33;;;4.20;;
4375;SDS011;2202;50.866;12.750;2024-02-21T12:36:19;7.53;;;4.77;;
4375;SDS011;2202;50.866;12.750;2024-02-21T12:38:46;8.67;;;4.50;;
4375;SDS011;2202;50.866;12.750;2024-02-21T12:41:13;8.30;;;5.67;;
4375;SDS011;2202;50.866;12.750;2024-02-21T12:43:40;7.83;;;4.27;;
4375;SDS011;2202;50.866;12.750;2024-02-21T12:46:07;12.10;;;4.50;;
4375;SDS011;2202;50.866;12.750;2024-02-21T12:48:34;10.40;;;5.53;;
4375;SDS011;2202;50.866;12.750;2024-02-21T12:51:01;6.53;;;4.83;;
4375;SDS011;2202;50.866;12.750;2024-02-21T12:53:31;7.20;;;5.50;;
4375;SDS011;2202;50.866;12.750;2024-02-21T12:55:57;8.80;;;4.80;;
4375;SDS011;2202;50.866;12.750;2024-02-21T12:58:24;8.30;;;5.30;;
4375;SDS011;2202;50.866;12.750;2024-02-21T13:00:51;7.70;;;4.87;;
4375;SDS011;2202;50.866;12.750;2024-02-21T13:03:18;6.97;;;4.57;;
4375;SDS011;2202;50.866;12.750;2024-02-21T13:05:46;6.07;;;5.17;;
4375;SDS011;2202;50.866;12.750;2024-02-21T13:08:13;6.67;;;4.00;;
4375;SDS011;2202;50.866;12.750;2024-02-21T13:10:41;8.17;;;5.17;;
4375;SDS011;2202;50.866;12.750;2024-02-21T13:13:08;5.80;;;5.20;;
4375;SDS011;2202;50.866;12.750;2024-02-21T13:15:35;6.03;;;4.70;;
4375;SDS011;2202;50.866;12.750;2024-02-21T13:18:04;10.50;;;5.17;;
4375;SDS011;2202;50.866;12.750;2024-02-21T13:20:31;8.43;;;4.90;;
4375;SDS011;2202;50.866;12.750;2024-02-21T13:22:57;9.90;;;4.97;;
4375;SDS011;2202;50.866;12.750;2024-02-21T13:25:24;7.37;;;4.67;;
4375;SDS011;2202;50.866;12.750;2024-02-21T13:27:53;7.33;;;4.77;;
4375;SDS011;2202;50.866;12.750;2024-02-21T13:30:20;7.03;;;5.30;;
4375;SDS011;2202;50.866;12.750;2024-02-21T13:32:47;5.57;;;5.03;;
4375;SDS011;2202;50.866;12.750;2024-02-21T13:35:14;5.10;;;3.90;;
4375;SDS011;2202;50.866;12.750;2024-02-21T13:37:41;4.60;;;4.20;;
4375;SDS011;2202;50.866;12.750;2024-02-21T13:40:08;7.23;;;4.00;;
4375;SDS011;2202;50.866;12.750;2024-02-21T13:42:36;6.20;;;3.90;;
4375;SDS011;2202;50.866;12.750;2024-02-21T13:45:06;4.67;;;3.70;;
4375;SDS011;2202;50.866;12.750;2024-02-21T13:47:33;8.10;;;4.07;;
4375;SDS011;2202;50.866;12.750;2024-02-21T13:50:01;8.33;;;5.40;;
4375;SDS011;2202;50.866;12.750;2024-02-21T13:52:29;7.03;;;4.10;;
4375;SDS011;2202;50.866;12.750;2024-02-21T13:54:56;7.03;;;4.70;;
4375;SDS011;2202;50.866;12.750;2024-02-21T13:57:23;4.87;;;3.97;;
4375;SDS011;2202;50.866;12.750;2024-02-21T13:59:50;4.37;;;3.60;;
4375;SDS011;2202;50.866;12.750;2024-02-21T14:02:19;4.70;;;3.90;;
4375;SDS011;2202;50.866;12.750;2024-02-21T14:04:46;9.87;;;5.53;;
4375;SDS011;2202;50.866;12.750;2024-02-21T14:07:13;7.40;;;3.80;;
4375;SDS011;2202;50.866;12.750;2024-02-21T14:09:40;4.40;;;4.03;;
4375;SDS011;2202;50.866;12.750;2024-02-21T14:12:06;6.30;;;3.87;;
4375;SDS011;2202;50.866;12.750;2024-02-21T14:14:34;7.73;;;4.27;;
4375;SDS011;2202;50.866;12.750;2024-02-21T14:17:01;11.33;;;4.13;;
4375;SDS011;2202;50.866;12.750;2024-02-21T14:19:30;8.60;;;4.30;;
4375;SDS011;2202;50.866;12.750;2024-02-21T14:21:57;8.97;;;3.80;;
4375;SDS011;2202;50.866;12.750;2024-02-21T14:24:23;4.60;;;3.60;;
4375;SDS011;2202;50.866;12.750;2024-02-21T14:26:52;6.23;;;3.53;;
4375;SDS011;2202;50.866;12.750;2024-02-21T14:29:19;6.13;;;3.77;;
4375;SDS011;2202;50.866;12.750;2024-02-21T14:31:47;5.73;;;4.17;;
4375;SDS011;2202;50.866;12.750;2024-02-21T14:34:13;5.30;;;4.60;;
4375;SDS011;2202;50.866;12.750;2024-02-21T14:36:42;4.67;;;3.50;;
4375;SDS011;2202;50.866;12.750;2024-02-21T14:39:09;7.10;;;3.83;;
4375;SDS011;2202;50.866;12.750;2024-02-21T14:41:35;8.33;;;4.37;;
4375;SDS011;2202;50.866;12.750;2024-02-21T14:44:04;6.47;;;4.10;;
4375;SDS011;2202;50.866;12.750;2024-02-21T14:46:31;4.93;;;4.23;;
4375;SDS011;2202;50.866;12.750;2024-02-21T14:48:58;4.77;;;3.93;;
4375;SDS011;2202;50.866;12.750;2024-02-21T14:51:25;5.80;;;3.97;;
4375;SDS011;2202;50.866;12.750;2024-02-21T14:53:53;5.57;;;4.20;;